Time;durP1;ratioP1;P1;durP2;ratioP2;P2;SDS_P1;SDS_P2;PMS_P1;PMS_P2;Temp;Humidity;BMP_temperature;BMP_pressure;BME280_temperature;BME280_humidity;BME280_pressure;Samples;Min_cycle;Max_cycle;Signal;HPM_P1;HPM_P2
2022/05/03 00:00:14;;;;;;;9.50;7.00;;;11.40;99.90;;;-141.84;64.20;17842.94;5050760;28;20215;-61
2022/05/03 00:02:52;;;;;;;7.70;6.90;;;11.50;99.90;;;-141.84;64.23;17855.13;5065336;28;20230;-59
2022/05/03 00:05:45;;;;;;;7.23;6.53;;;11.50;99.90;;;-141.84;64.58;17820.59;5090997;28;20737;-62
2022/05/03 00:08:28;;;;;;;8.07;6.67;;;11.50;99.90;;;-141.84;65.06;17812.47;5050801;28;20225;-61
2022/05/03 00:11:09;;;;;;;7.80;7.03;;;11.50;99.90;;;-141.84;64.83;17812.47;5050344;28;20821;-62
2022/05/03 00:13:51;;;;;;;7.97;7.17;;;11.50;99.90;;;-141.84;63.88;17830.75;5050510;28;20336;-61
2022/05/03 00:16:21;;;;;;;12.40;7.53;;;11.60;99.90;;;-141.84;64.20;17810.44;5050578;28;20252;-62
2022/05/03 00:18:50;;;;;;;8.80;7.07;;;11.60;99.90;;;-141.84;64.66;17855.13;5050352;28;20256;-60
2022/05/03 00:21:19;;;;;;;8.20;7.40;;;11.70;99.90;;;-141.84;64.09;17857.16;5050177;28;20635;-61
2022/05/03 00:23:49;;;;;;;7.73;7.03;;;11.70;99.90;;;-141.84;63.97;17840.91;5051106;28;20205;-60
2022/05/03 00:26:18;;;;;;;7.63;6.93;;;11.70;99.90;;;-141.84;63.36;17842.94;5049920;28;20606;-60
2022/05/03 00:28:47;;;;;;;8.53;7.30;;;11.70;99.90;;;-141.84;62.48;17873.41;5050622;28;20630;-60
2022/05/03 00:31:16;;;;;;;8.37;7.23;;;11.70;99.90;;;-141.84;61.46;17889.66;5050261;28;20308;-62
2022/05/03 00:33:44;;;;;;;7.93;7.13;;;11.80;99.90;;;-141.84;62.19;17885.59;5050227;28;20316;-61
2022/05/03 00:36:12;;;;;;;7.83;6.77;;;11.80;99.90;;;-141.84;62.40;17875.44;5050361;28;20201;-61
2022/05/03 00:38:40;;;;;;;7.80;7.10;;;11.80;99.90;;;-141.84;62.78;17865.28;5050835;28;20208;-64
2022/05/03 00:41:18;;;;;;;7.47;6.77;;;11.80;99.90;;;-141.84;62.98;17816.53;5049750;28;20249;-60
2022/05/03 00:43:58;;;;;;;8.73;7.83;;;11.70;99.90;;;-141.84;63.93;17838.88;5050094;28;20311;-60
2022/05/03 00:46:38;;;;;;;9.03;7.90;;;11.70;99.90;;;-141.84;63.58;17847.00;5050129;28;20228;-62
2022/05/03 00:49:26;;;;;;;9.27;7.80;;;11.60;99.90;;;-141.84;63.17;17834.81;5049888;28;20229;-62
2022/05/03 00:52:05;;;;;;;8.67;7.87;;;11.60;99.90;;;-141.84;63.31;17822.63;5049916;28;20320;-59
2022/05/03 00:54:50;;;;;;;8.30;7.50;;;11.60;99.90;;;-141.84;63.82;17863.25;5049846;28;20426;-60
2022/05/03 00:57:39;;;;;;;8.10;7.30;;;11.50;99.90;;;-141.84;64.05;17832.78;5049975;28;20221;-61
2022/05/03 01:00:10;;;;;;;8.27;7.40;;;11.40;99.90;;;-141.84;63.75;17830.75;5049750;28;20539;-61
2022/05/03 01:03:04;;;;;;;8.50;7.70;;;11.40;99.90;;;-141.84;62.58;17855.13;5050546;28;20280;-60
2022/05/03 01:05:46;;;;;;;8.47;7.37;;;11.60;99.90;;;-141.84;62.51;17849.03;5049855;28;20201;-60
2022/05/03 01:08:33;;;;;;;8.53;7.57;;;11.60;99.90;;;-141.84;62.56;17877.47;5049763;28;20454;-61
2022/05/03 01:11:26;;;;;;;9.20;7.73;;;11.60;99.90;;;-141.84;61.24;17891.69;5049379;28;20388;-60
2022/05/03 01:14:11;;;;;;;8.00;7.20;;;11.70;99.90;;;-141.84;62.04;17867.31;5049702;28;20259;-61
2022/05/03 01:16:49;;;;;;;8.73;7.83;;;11.70;99.90;;;-141.84;63.06;17863.25;5049243;28;20675;-60
2022/05/03 01:19:38;;;;;;;8.87;7.40;;;11.60;99.90;;;-141.84;63.05;17842.94;5049528;28;20228;-61
2022/05/03 01:22:19;;;;;;;7.60;6.93;;;11.60;99.90;;;-141.84;64.17;17838.88;5049401;28;20225;-61
2022/05/03 01:25:29;;;;;;;9.00;7.37;;;11.50;99.90;;;-141.84;64.93;17784.03;5049142;28;20260;-61
2022/05/03 01:28:12;;;;;;;8.53;7.60;;;11.30;99.90;;;-141.84;66.42;17792.16;5049426;28;20304;-61
2022/05/03 01:30:47;;;;;;;8.30;7.50;;;11.10;99.90;;;-141.84;65.53;17798.25;5049237;28;20244;-62
2022/05/03 01:33:22;;;;;;;8.50;7.60;;;11.10;99.90;;;-141.84;66.03;17767.78;5049289;28;20279;-60
2022/05/03 01:35:58;;;;;;;8.90;7.90;;;11.00;99.90;;;-141.84;66.04;17794.19;5049771;28;20217;-60
2022/05/03 01:38:42;;;;;;;8.83;7.60;;;11.00;99.90;;;-141.84;65.97;17790.13;5049874;28;20236;-60
2022/05/03 01:41:28;;;;;;;9.20;7.70;;;10.90;99.90;;;-141.84;65.88;17777.94;5048933;28;20639;-60
2022/05/03 01:44:09;;;;;;;8.13;7.33;;;10.90;99.90;;;-141.84;65.82;17771.84;5049496;28;20240;-60
2022/05/03 01:46:39;;;;;;;8.07;7.37;;;10.90;99.90;;;-141.84;66.40;17769.81;5049100;28;20227;-62
2022/05/03 01:52:47;;;;;;;8.70;7.87;;;10.90;99.90;;;-141.84;69.01;17700.75;5049071;28;20780;-61
2022/05/03 01:55:53;;;;;;;8.73;7.80;;;10.80;99.90;;;-141.84;69.65;17723.09;5049012;28;20237;-61
2022/05/03 01:58:32;;;;;;;8.77;7.93;;;10.70;99.90;;;-141.84;69.65;17702.78;5049132;28;20221;-61
2022/05/03 02:01:05;;;;;;;9.30;8.13;;;10.60;99.90;;;-141.84;70.17;17684.50;5048955;28;20256;-61
2022/05/03 02:03:50;;;;;;;8.80;7.90;;;10.50;99.90;;;-141.84;70.34;17674.34;5077647;28;20227;-61
2022/05/03 02:06:33;;;;;;;9.13;8.23;;;10.40;99.90;;;-141.84;71.40;17680.44;5083275;28;20311;-63
2022/05/03 02:09:05;;;;;;;9.40;7.90;;;10.40;99.90;;;-141.84;71.71;17654.03;5068855;28;20276;-61
2022/05/03 02:11:59;;;;;;;8.60;7.73;;;10.30;99.90;;;-141.84;71.82;17625.59;5069041;28;20782;-60
2022/05/03 02:14:45;;;;;;;10.50;9.30;;;10.30;99.90;;;-141.84;72.87;17660.13;5069412;28;20212;-62
2022/05/03 02:17:37;;;;;;;9.07;8.27;;;10.20;99.90;;;-141.84;73.44;17619.50;5072528;28;20244;-62
2022/05/03 02:20:32;;;;;;;9.37;8.27;;;10.10;99.90;;;-141.84;73.57;17643.88;5069111;28;20233;-61
2022/05/03 02:23:21;;;;;;;10.27;9.00;;;10.10;99.90;;;-141.84;74.17;17619.50;5052451;28;20221;-61
2022/05/03 02:26:18;;;;;;;10.40;8.87;;;10.10;99.90;;;-141.84;74.26;17589.03;5052602;28;20257;-60
2022/05/03 02:28:54;;;;;;;9.93;8.93;;;10.10;99.90;;;-141.84;73.75;17605.28;5052568;28;20316;-61
2022/05/03 02:31:33;;;;;;;10.13;9.17;;;10.10;99.90;;;-141.84;74.57;17615.44;5052585;28;20282;-62
2022/05/03 02:34:17;;;;;;;10.07;9.10;;;10.10;99.90;;;-141.84;74.68;17589.03;5052186;28;20312;-60
2022/05/03 02:36:56;;;;;;;10.23;9.23;;;10.10;99.90;;;-141.84;74.35;17584.97;5052406;28;20760;-60
2022/05/03 02:39:31;;;;;;;12.87;9.63;;;10.00;99.90;;;-141.84;74.18;17595.13;5052373;28;20304;-61
2022/05/03 02:42:02;;;;;;;9.93;9.03;;;10.00;99.90;;;-141.84;71.67;17635.75;5052390;28;20191;-60
2022/05/03 02:44:34;;;;;;;11.10;9.43;;;10.10;99.90;;;-141.84;70.11;17654.03;5052957;28;20186;-61
2022/05/03 02:47:10;;;;;;;10.90;9.80;;;10.30;99.90;;;-141.84;70.94;17662.16;5052080;28;20252;-59
2022/05/03 02:49:58;;;;;;;9.63;8.63;;;10.30;99.90;;;-141.84;69.62;17678.41;5052071;28;20239;-60
2022/05/03 02:52:41;;;;;;;11.27;9.90;;;10.40;99.90;;;-141.84;68.92;17694.66;5052065;28;20312;-61
2022/05/03 02:55:21;;;;;;;11.10;10.07;;;10.50;99.90;;;-141.84;69.50;17702.78;5052039;28;20335;-61
2022/05/03 02:58:04;;;;;;;12.10;9.97;;;10.50;99.90;;;-141.84;70.12;17654.03;5052029;28;20631;-60
2022/05/03 03:03:50;;;;;;;11.60;10.47;;;10.30;99.90;;;-141.84;71.42;17643.88;5078318;28;20232;-61
2022/05/03 03:06:23;;;;;;;12.17;10.83;;;10.30;99.90;;;-141.84;71.90;17607.31;5086134;28;20752;-61
2022/05/03 03:08:55;;;;;;;10.80;9.77;;;10.20;99.90;;;-141.84;73.08;17599.19;5072552;28;20280;-61
2022/05/03 03:11:32;;;;;;;11.27;10.10;;;10.10;99.90;;;-141.84;73.45;17593.09;5072026;28;20205;-59
2022/05/03 03:14:20;;;;;;;12.27;10.70;;;10.00;99.90;;;-141.84;73.29;17587.00;5071447;28;20414;-62
2022/05/03 03:16:55;;;;;;;12.63;11.33;;;10.00;99.90;;;-141.84;73.28;17587.00;5071769;28;20258;-61
2022/05/03 03:19:47;;;;;;;12.27;11.17;;;10.00;99.90;;;-141.84;73.91;17566.69;5071475;28;20244;-61
2022/05/03 03:22:16;;;;;;;16.27;12.40;;;9.90;99.90;;;-141.84;75.17;17552.47;5071510;28;20232;-60
2022/05/03 03:24:49;;;;;;;15.90;11.90;;;9.90;99.90;;;-141.84;74.54;17564.66;5071481;28;20652;-60
2022/05/03 03:27:22;;;;;;;12.00;10.80;;;9.80;99.90;;;-141.84;74.89;17568.72;5070926;28;20780;-61
2022/05/03 03:29:55;;;;;;;13.30;11.57;;;9.80;99.90;;;-141.84;74.04;17574.81;5072111;28;20216;-60
2022/05/03 03:32:27;;;;;;;13.10;11.80;;;9.80;99.90;;;-141.84;73.56;17536.22;5071666;28;20205;-61
2022/05/03 03:34:57;;;;;;;14.67;11.80;;;9.90;99.90;;;-141.84;73.24;17591.06;5071510;28;20239;-62
2022/05/03 03:37:28;;;;;;;13.07;11.63;;;9.90;99.90;;;-141.84;74.06;17554.50;5071365;28;20224;-61
2022/05/03 03:39:58;;;;;;;14.47;11.57;;;9.90;99.90;;;-141.84;74.58;17570.75;5071324;28;20686;-60
2022/05/03 03:42:28;;;;;;;14.30;12.03;;;9.90;99.90;;;-141.84;74.24;17554.50;5071268;28;20311;-60
2022/05/03 03:45:01;;;;;;;13.67;11.87;;;9.90;99.90;;;-141.84;75.21;17578.88;5056300;28;20603;-61
2022/05/03 03:47:31;;;;;;;13.30;11.80;;;9.80;99.90;;;-141.84;74.15;17582.94;5051462;28;20281;-60
2022/05/03 03:49:59;;;;;;;13.67;12.07;;;9.90;99.90;;;-141.84;73.49;17558.56;5050830;28;20364;-61
2022/05/03 03:52:28;;;;;;;16.10;12.20;;;9.90;99.90;;;-141.84;72.97;17595.13;5050975;28;20221;-60
2022/05/03 03:54:58;;;;;;;13.77;12.17;;;10.00;99.90;;;-141.84;73.43;17572.78;5050777;28;20765;-61
2022/05/03 03:57:32;;;;;;;12.70;11.40;;;10.00;99.90;;;-141.84;74.42;17558.56;5051033;28;20650;-60
2022/05/03 04:00:02;;;;;;;14.40;12.53;;;9.90;99.90;;;-141.84;75.08;17546.38;5050895;28;20204;-60
2022/05/03 04:02:30;;;;;;;14.00;12.17;;;9.90;99.90;;;-141.84;74.47;17550.44;5062212;28;20561;-60
2022/05/03 04:05:00;;;;;;;12.90;11.50;;;9.90;99.90;;;-141.84;75.10;17566.69;5090582;28;20250;-61
2022/05/03 04:07:29;;;;;;;13.93;12.53;;;9.90;99.90;;;-141.84;74.41;17564.66;5074919;28;20228;-61
2022/05/03 04:09:58;;;;;;;14.53;11.37;;;9.90;99.90;;;-141.84;74.59;17570.75;5070432;28;20252;-62
2022/05/03 04:12:29;;;;;;;14.23;12.50;;;10.00;99.90;;;-141.84;74.49;17570.75;5070559;28;20231;-61
2022/05/03 04:14:58;;;;;;;13.57;11.93;;;10.00;99.90;;;-141.84;74.57;17584.97;5070592;28;20551;-60
2022/05/03 04:17:26;;;;;;;12.90;11.53;;;10.00;99.90;;;-141.84;74.53;17566.69;5070830;28;20739;-60
2022/05/03 04:19:54;;;;;;;13.50;12.10;;;10.00;99.90;;;-141.84;74.29;17556.53;5068420;28;20737;-61
2022/05/03 04:22:28;;;;;;;15.07;12.10;;;10.00;99.90;;;-141.84;73.43;17570.75;5049982;28;20619;-60
2022/05/03 04:24:59;;;;;;;15.40;12.77;;;10.00;99.90;;;-141.84;73.62;17568.72;5049854;28;20235;-61
2022/05/03 04:27:27;;;;;;;13.67;11.47;;;10.00;99.90;;;-141.84;73.11;17595.13;5050024;28;20223;-60
2022/05/03 04:29:58;;;;;;;14.53;11.97;;;10.00;99.90;;;-141.84;72.48;17601.22;5050317;28;20677;-59
2022/05/03 04:32:30;;;;;;;13.23;10.83;;;10.00;99.90;;;-141.84;73.15;17580.91;5050331;28;20824;-60
2022/05/03 04:34:59;;;;;;;12.63;11.43;;;10.00;99.90;;;-141.84;73.62;17582.94;5049819;28;20308;-60
2022/05/03 04:37:28;;;;;;;13.13;11.83;;;10.00;99.90;;;-141.84;72.42;17582.94;5049379;28;20221;-61
2022/05/03 04:39:56;;;;;;;14.33;12.60;;;10.00;99.90;;;-141.84;71.50;17591.06;5049874;28;20228;-60
2022/05/03 04:42:25;;;;;;;14.30;12.33;;;10.10;99.90;;;-141.84;72.01;17609.34;5050012;28;20323;-60
2022/05/03 04:44:54;;;;;;;13.53;12.00;;;10.10;99.90;;;-141.84;71.92;17627.63;5050238;28;20296;-60
2022/05/03 04:47:22;;;;;;;15.93;12.53;;;10.10;99.90;;;-141.84;70.83;17595.13;5049695;28;20228;-62
2022/05/03 04:49:49;;;;;;;13.87;12.37;;;10.10;99.90;;;-141.84;71.55;17597.16;5049382;28;20229;-60
2022/05/03 04:52:18;;;;;;;15.40;12.67;;;10.20;99.90;;;-141.84;71.01;17611.38;5049931;28;20264;-61
2022/05/03 04:54:46;;;;;;;14.33;12.37;;;10.20;99.90;;;-141.84;70.78;17629.66;5049317;28;20617;-62
2022/05/03 04:57:16;;;;;;;13.30;11.87;;;10.30;99.90;;;-141.84;68.99;17664.19;5049735;28;20245;-61
2022/05/03 04:59:45;;;;;;;13.43;12.03;;;10.60;99.90;;;-141.84;63.56;17769.81;5049986;28;20205;-60
2022/05/03 05:02:14;;;;;;;12.27;11.03;;;11.10;99.90;;;-141.84;61.36;17834.81;5055668;28;20224;-60
2022/05/03 05:04:42;;;;;;;13.40;11.23;;;11.50;99.90;;;-141.84;58.97;17899.81;5089723;28;20234;-60
2022/05/03 05:07:10;;;;;;;15.60;11.17;;;12.00;99.90;;;-141.84;57.67;17936.41;5077016;28;20237;-61
2022/05/03 05:10:23;;;;;;;13.40;10.87;;;12.30;99.90;;;-141.84;56.70;17968.91;5070347;28;20340;-61
2022/05/03 05:12:26;;;;;;;12.67;11.40;;;12.70;99.90;;;-141.84;57.17;17956.72;5070278;28;20220;-60
2022/05/03 05:14:56;;;;;;;12.43;11.20;;;12.70;99.90;;;-141.84;58.58;17936.41;5070155;28;20562;-60
2022/05/03 05:17:23;;;;;;;13.60;11.67;;;12.60;99.90;;;-141.84;60.25;17903.88;5070898;28;20205;-61
2022/05/03 05:19:52;;;;;;;15.13;13.27;;;12.40;99.90;;;-141.84;61.79;17834.81;5068280;28;20263;-60
2022/05/03 05:22:21;;;;;;;16.17;12.13;;;12.20;99.90;;;-141.84;62.32;17826.69;5050316;28;20228;-60
2022/05/03 05:24:50;;;;;;;15.10;11.90;;;12.10;99.90;;;-141.84;62.11;17812.47;5050051;28;20229;-60
2022/05/03 05:27:19;;;;;;;14.10;12.67;;;12.00;99.90;;;-141.84;62.35;17769.81;5050127;28;20274;-60
2022/05/03 05:29:47;;;;;;;12.73;11.53;;;12.00;99.90;;;-141.84;62.70;17786.06;5050420;28;20763;-60
2022/05/03 05:32:17;;;;;;;14.13;11.53;;;12.10;99.90;;;-141.84;62.03;17806.38;5049892;28;20236;-61
2022/05/03 05:34:44;;;;;;;12.43;11.17;;;12.20;99.90;;;-141.84;61.59;17855.13;5049731;28;20221;-60
2022/05/03 05:37:12;;;;;;;14.40;11.67;;;12.40;99.90;;;-141.84;60.26;17855.13;5050139;28;20245;-61
2022/05/03 05:39:40;;;;;;;12.73;11.53;;;12.50;99.90;;;-141.84;59.44;17891.69;5049947;28;20312;-61
2022/05/03 05:42:09;;;;;;;13.27;11.90;;;12.50;99.90;;;-141.84;60.26;17842.94;5050319;28;20267;-60
2022/05/03 05:44:37;;;;;;;13.53;11.70;;;12.40;99.90;;;-141.84;60.40;17863.25;5050501;28;20205;-62
2022/05/03 05:47:05;;;;;;;13.60;12.20;;;12.40;99.90;;;-141.84;60.41;17832.78;5049888;28;20320;-61
2022/05/03 05:49:35;;;;;;;14.63;13.13;;;12.40;99.90;;;-141.84;59.59;17879.50;5052012;28;20244;-61
2022/05/03 05:54:46;;;;;;;12.30;11.10;;;12.60;99.90;;;-141.84;59.50;17881.53;5053589;28;20304;-60
2022/05/03 05:57:14;;;;;;;12.80;11.37;;;12.70;99.90;;;-141.84;59.83;17899.81;5053974;28;20344;-62
2022/05/03 05:59:42;;;;;;;12.63;11.43;;;12.90;99.90;;;-141.84;59.97;17916.06;5054286;28;20297;-60
2022/05/03 06:02:10;;;;;;;11.93;10.70;;;12.90;99.90;;;-141.84;59.24;17877.47;5059141;28;20612;-59
2022/05/03 06:04:39;;;;;;;12.87;11.53;;;13.00;99.90;;;-141.84;58.23;17952.66;5093920;28;20223;-60
2022/05/03 06:07:07;;;;;;;12.43;11.17;;;13.30;99.90;;;-141.84;57.39;17944.53;5080947;28;20231;-61
2022/05/03 06:09:35;;;;;;;12.30;11.03;;;13.20;99.90;;;-141.84;58.13;17924.22;5073647;28;20224;-60
2022/05/03 06:12:04;;;;;;;12.07;10.85;;;13.30;99.90;;;-141.84;57.56;17920.13;5074000;28;20201;-60
2022/05/03 06:14:32;;;;;;;11.83;10.63;;;13.40;99.90;;;-141.84;58.05;17934.38;5074245;28;20296;-60
2022/05/03 06:17:00;;;;;;;12.83;10.43;;;13.40;99.90;;;-141.84;58.13;17930.31;5073492;28;20221;-60
2022/05/03 06:19:28;;;;;;;11.90;10.73;;;13.30;99.90;;;-141.84;58.06;17924.22;5073406;28;20708;-60
2022/05/03 06:21:57;;;;;;;11.40;10.13;;;13.40;99.90;;;-141.84;57.81;17920.13;5054855;28;20259;-59
2022/05/03 06:24:25;;;;;;;11.63;10.30;;;13.60;99.90;;;-141.84;56.10;17977.03;5053730;28;20351;-59
2022/05/03 06:26:54;;;;;;;13.67;11.27;;;13.70;99.90;;;-141.84;56.13;17972.97;5053450;28;20291;-61
2022/05/03 06:29:22;;;;;;;12.37;10.50;;;13.70;99.90;;;-141.84;56.66;17985.16;5053662;28;20209;-59
2022/05/03 06:31:50;;;;;;;13.27;10.77;;;13.60;99.90;;;-141.84;56.56;17958.75;5053363;28;20237;-60
2022/05/03 06:34:19;;;;;;;11.77;10.53;;;13.60;99.90;;;-141.84;56.42;17964.84;5073474;28;20248;-61
2022/05/03 06:36:49;;;;;;;12.83;10.83;;;13.60;99.90;;;-141.84;56.29;17975.00;5073057;28;20606;-60
2022/05/03 06:39:18;;;;;;;11.80;10.17;;;13.60;99.90;;;-141.84;55.90;17995.31;5073268;28;20224;-60
2022/05/03 06:41:46;;;;;;;12.63;10.00;;;13.70;99.90;;;-141.84;55.37;18001.41;5073676;28;20201;-60
2022/05/03 06:44:14;;;;;;;10.83;9.20;;;13.80;99.90;;;-141.84;55.42;18003.44;5072957;28;20228;-60
2022/05/03 06:46:42;;;;;;;13.70;9.87;;;13.80;99.90;;;-141.84;54.53;18013.59;5072819;28;20227;-60
2022/05/03 06:49:10;;;;;;;11.33;10.13;;;13.90;99.90;;;-141.84;54.69;18005.47;5073019;28;20228;-61
2022/05/03 06:51:39;;;;;;;11.80;10.03;;;13.80;99.90;;;-141.84;54.01;18054.22;5072676;28;20663;-60
2022/05/03 06:54:06;;;;;;;10.67;9.57;;;14.00;99.90;;;-141.84;54.13;18037.97;5073033;28;20201;-60
2022/05/03 06:56:36;;;;;;;10.60;9.50;;;14.10;99.90;;;-141.84;54.74;18035.94;5072751;28;20821;-59
2022/05/03 06:59:04;;;;;;;10.93;9.60;;;14.00;99.90;;;-141.84;54.42;18027.81;5072528;28;20224;-61
2022/05/03 07:01:33;;;;;;;10.30;9.27;;;14.10;99.90;;;-141.84;54.86;18037.97;5071890;28;20232;-59
2022/05/03 07:04:01;;;;;;;12.57;10.00;;;14.00;99.90;;;-141.84;55.44;17993.28;5090987;28;20227;-60
2022/05/03 07:06:29;;;;;;;11.83;10.23;;;13.90;99.90;;;-141.84;55.35;18052.19;5085243;28;20300;-61
2022/05/03 07:08:57;;;;;;;11.43;10.33;;;14.00;99.90;;;-141.84;55.88;18017.66;5072742;28;20296;-60
2022/05/03 07:11:25;;;;;;;11.47;10.37;;;13.90;99.90;;;-141.84;55.06;18013.59;5072516;28;20209;-61
2022/05/03 07:13:54;;;;;;;13.53;10.60;;;14.00;99.90;;;-141.84;55.17;18035.94;5072409;28;20236;-59
2022/05/03 07:16:22;;;;;;;11.20;10.10;;;14.10;99.90;;;-141.84;55.52;17983.13;5072168;28;20220;-60
2022/05/03 07:24:25;;;;;;;11.40;10.30;;;14.30;99.90;;;-141.84;54.34;18042.03;5050775;28;20225;-61
2022/05/03 07:26:56;;;;;;;10.63;9.53;;;14.30;99.90;;;-141.84;52.91;18078.59;5051577;28;20186;-60
2022/05/03 07:29:25;;;;;;;10.47;9.37;;;14.40;99.90;;;-141.84;53.03;18111.09;5051998;28;20209;-61
2022/05/03 07:31:53;;;;;;;10.87;9.77;;;14.60;99.90;;;-141.84;52.56;18086.72;5051072;28;20247;-61
2022/05/03 07:34:21;;;;;;;11.05;9.75;;;14.70;99.90;;;-141.84;51.28;18186.25;5051065;28;20222;-63
2022/05/03 07:36:49;;;;;;;12.77;10.10;;;14.70;99.90;;;-141.84;50.71;18159.84;5051054;28;20275;-61
2022/05/03 07:39:16;;;;;;;12.27;9.70;;;14.80;99.90;;;-141.84;49.89;18170.00;5051247;28;20240;-61
2022/05/03 07:41:44;;;;;;;11.23;9.20;;;14.90;99.90;;;-141.84;49.21;18192.34;5051829;28;20554;-61
2022/05/03 07:44:12;;;;;;;11.90;8.97;;;14.90;99.90;;;-141.84;48.59;18239.09;5051031;28;20233;-61
2022/05/03 07:46:42;;;;;;;9.23;8.05;;;15.00;99.90;;;-141.84;47.21;18253.31;5050809;28;20750;-60
2022/05/03 07:49:11;;;;;;;8.95;8.05;;;15.10;99.90;;;-141.84;46.05;18293.94;5050927;28;20233;-61
2022/05/03 07:51:41;;;;;;;8.05;7.25;;;15.10;99.90;;;-141.84;44.50;18346.75;5050804;28;20272;-60
2022/05/03 07:54:09;;;;;;;8.27;6.93;;;15.30;99.90;;;-141.84;44.58;18342.69;5051208;28;20253;-62
2022/05/03 07:56:37;;;;;;;8.93;6.45;;;15.40;99.90;;;-141.84;43.57;18448.34;5051248;28;20229;-60
2022/05/03 07:59:08;;;;;;;7.75;6.03;;;15.50;99.90;;;-141.84;41.51;18480.84;5050812;28;20221;-59
2022/05/03 08:01:39;;;;;;;6.65;5.97;;;15.70;99.90;;;-141.84;40.54;18570.22;5050880;28;20228;-60
2022/05/03 08:04:09;;;;;;;7.65;6.20;;;15.90;99.90;;;-141.84;41.57;18488.97;5088627;28;20301;-62
2022/05/03 08:06:37;;;;;;;7.45;6.65;;;15.90;99.90;;;-141.84;42.29;18482.88;5081782;28;20236;-59
2022/05/03 08:09:05;;;;;;;9.20;6.53;;;15.80;99.90;;;-141.84;43.02;18452.41;5070278;28;20201;-61
2022/05/03 08:11:36;;;;;;;11.10;7.13;;;15.70;99.90;;;-141.84;43.45;18440.22;5070953;28;20220;-60
2022/05/03 08:14:04;;;;;;;9.18;6.32;;;15.70;99.90;;;-141.84;44.04;18438.19;5070434;28;20236;-60
2022/05/03 08:16:32;;;;;;;7.25;6.47;;;15.60;99.90;;;-141.84;43.50;18421.91;5070359;28;20235;-61
2022/05/03 08:19:00;;;;;;;8.52;6.45;;;15.70;99.90;;;-141.84;43.40;18460.53;5070253;28;20236;-61
2022/05/03 08:21:32;;;;;;;8.05;6.40;;;15.70;99.90;;;-141.84;43.88;18450.38;5055616;28;20217;-59
2022/05/03 08:24:00;;;;;;;8.27;6.43;;;15.80;99.90;;;-141.84;43.23;18464.59;5050615;28;20189;-62
2022/05/03 08:26:29;;;;;;;8.02;7.00;;;16.00;99.90;;;-141.84;43.07;18480.84;5051003;28;20215;-60
2022/05/03 08:28:57;;;;;;;9.93;6.72;;;16.10;99.90;;;-141.84;44.00;18438.19;5050045;28;20225;-59
2022/05/03 08:31:25;;;;;;;8.45;6.85;;;15.80;99.90;;;-141.84;44.39;18438.19;5050375;28;20293;-60
2022/05/03 08:33:53;;;;;;;8.52;6.78;;;15.80;99.90;;;-141.84;43.41;18464.59;5049916;28;20225;-61
2022/05/03 08:36:21;;;;;;;10.80;6.72;;;15.90;99.90;;;-141.84;43.23;18464.59;5050112;28;20221;-59
2022/05/03 08:44:21;;;;;;;8.70;6.05;;;16.00;99.90;;;-141.84;41.10;18505.22;5050105;28;20232;-60
2022/05/03 08:46:51;;;;;;;8.52;5.78;;;16.10;99.90;;;-141.84;41.46;18545.84;5049978;28;20304;-61
2022/05/03 08:49:21;;;;;;;7.65;6.53;;;16.20;99.90;;;-141.84;41.31;18533.66;5049837;28;20602;-61
2022/05/03 08:51:52;;;;;;;8.10;6.47;;;16.10;99.90;;;-141.84;41.08;18529.59;5050045;28;20272;-61
2022/05/03 08:54:22;;;;;;;9.52;6.75;;;15.90;99.90;;;-141.84;41.27;18521.47;5049777;28;20240;-60
2022/05/03 08:56:50;;;;;;;8.05;6.72;;;16.00;99.90;;;-141.84;41.25;18537.72;5050512;28;20211;-60
2022/05/03 08:59:18;;;;;;;7.15;6.32;;;16.10;99.90;;;-141.84;41.69;18511.31;5049803;28;20239;-62
2022/05/03 09:01:46;;;;;;;7.10;6.38;;;16.00;99.90;;;-141.84;41.77;18519.44;5049822;28;20225;-60
2022/05/03 09:04:14;;;;;;;7.55;6.82;;;16.00;99.90;;;-141.84;41.73;18545.84;5089784;28;20220;-60
2022/05/03 09:06:44;;;;;;;9.60;6.50;;;16.00;99.90;;;-141.84;41.51;18560.06;5080468;28;20307;-61
2022/05/03 09:09:13;;;;;;;8.23;6.22;;;16.10;99.90;;;-141.84;41.90;18517.41;5069622;28;20187;-61
2022/05/03 09:11:46;;;;;;;9.15;6.18;;;16.20;99.90;;;-141.84;41.83;18562.09;5070381;28;20192;-61
2022/05/03 09:14:35;;;;;;;8.15;7.30;;;16.40;99.90;;;-141.84;41.51;18551.94;5069381;28;20232;-60
2022/05/03 09:17:04;;;;;;;7.90;6.43;;;16.50;99.90;;;-141.84;41.91;18529.59;5069690;28;20217;-60
2022/05/03 09:19:33;;;;;;;10.07;6.55;;;16.50;99.90;;;-141.84;42.44;18533.66;5069443;28;20234;-61
2022/05/03 09:24:55;;;;;;;9.05;6.82;;;16.50;99.90;;;-141.84;42.18;18531.63;5049063;28;20880;-60
2022/05/03 09:27:27;;;;;;;8.48;6.85;;;16.60;99.90;;;-141.84;41.57;18576.31;5049516;28;20256;-59
2022/05/03 09:30:07;;;;;;;8.15;6.85;;;16.60;99.90;;;-141.84;41.95;18586.50;5049434;28;20208;-60
2022/05/03 09:32:41;;;;;;;8.35;6.70;;;16.60;99.90;;;-141.84;42.13;18551.94;5050173;28;20211;-61
2022/05/03 09:35:34;;;;;;;8.05;6.78;;;16.60;99.90;;;-141.84;41.37;18580.41;5049154;28;20238;-60
2022/05/03 09:38:04;;;;;;;10.70;6.88;;;16.80;99.90;;;-141.84;41.78;18610.88;5049234;28;20224;-61
2022/05/03 09:40:37;;;;;;;8.70;6.43;;;16.90;99.90;;;-141.84;41.46;18592.59;5049262;28;20237;-60
2022/05/03 09:43:06;;;;;;;9.02;7.28;;;16.90;99.90;;;-141.84;41.53;18608.84;5049495;28;20251;-60
2022/05/03 09:45:34;;;;;;;7.75;6.80;;;17.00;99.90;;;-141.84;41.16;18623.06;5049341;28;20312;-60
2022/05/03 09:48:03;;;;;;;8.05;7.25;;;17.10;99.90;;;-141.84;41.09;18610.88;5049401;28;20240;-61
2022/05/03 09:50:42;;;;;;;8.18;7.38;;;17.20;99.90;;;-141.84;40.76;18627.13;5049497;28;20233;-61
2022/05/03 09:53:17;;;;;;;7.97;6.85;;;17.20;99.90;;;-141.84;41.19;18604.78;5049002;28;20229;-60
2022/05/03 09:55:48;;;;;;;10.20;7.47;;;17.20;99.90;;;-141.84;40.93;18596.66;5048930;28;20252;-60
2022/05/03 09:58:20;;;;;;;8.23;7.13;;;17.30;99.90;;;-141.84;40.89;18659.63;5049216;28;20229;-60
2022/05/03 10:00:49;;;;;;;7.90;6.75;;;17.20;99.90;;;-141.84;40.98;18621.03;5049031;28;20746;-60
2022/05/03 10:03:20;;;;;;;8.00;7.18;;;17.20;99.90;;;-141.84;40.82;18631.19;5073549;28;20505;-60
2022/05/03 10:05:48;;;;;;;7.43;6.72;;;17.30;99.90;;;-141.84;41.03;18598.69;5087687;28;20245;-59
2022/05/03 10:08:19;;;;;;;6.65;6.05;;;17.30;99.90;;;-141.84;41.53;18584.47;5069003;28;20259;-60
2022/05/03 10:10:56;;;;;;;7.13;6.43;;;17.30;99.90;;;-141.84;40.62;18645.41;5068785;28;20236;-60
2022/05/03 10:13:27;;;;;;;8.52;6.68;;;17.50;99.90;;;-141.84;40.64;18669.78;5068946;28;20608;-60
2022/05/03 10:21:40;;;;;;;8.05;7.18;;;17.50;99.90;;;-141.84;40.76;18651.50;5048514;28;20689;-60
2022/05/03 10:24:11;;;;;;;6.90;6.22;;;17.50;99.90;;;-141.84;40.59;18653.53;5048939;28;20202;-60
2022/05/03 10:27:05;;;;;;;7.43;6.60;;;17.50;99.90;;;-141.84;40.55;18631.19;5049527;28;20471;-61
2022/05/03 10:29:36;;;;;;;9.85;6.90;;;17.50;99.90;;;-141.84;40.70;18684.00;5049167;28;20205;-61
2022/05/03 10:32:15;;;;;;;8.52;7.03;;;17.50;99.90;;;-141.84;40.72;18651.50;5049057;28;20324;-59
2022/05/03 10:34:53;;;;;;;9.02;6.93;;;17.50;99.90;;;-141.84;40.74;18673.84;5048894;28;20736;-59
2022/05/03 10:38:05;;;;;;;8.35;7.35;;;17.50;99.90;;;-141.84;40.41;18671.81;5052288;28;20229;-60
2022/05/03 10:40:40;;;;;;;9.38;7.38;;;17.60;99.90;;;-141.84;40.32;18681.97;5052550;28;20229;-60
2022/05/03 10:43:24;;;;;;;18.95;8.90;;;17.60;99.90;;;-141.84;40.24;18651.50;5052719;28;20228;-60
2022/05/03 10:45:56;;;;;;;9.55;7.63;;;17.70;99.90;;;-141.84;40.14;18688.06;5052424;28;20235;-59
2022/05/03 10:48:28;;;;;;;8.32;6.65;;;17.70;99.90;;;-141.84;40.27;18712.47;5052842;28;20217;-60
2022/05/03 10:50:59;;;;;;;8.60;7.50;;;17.70;99.90;;;-141.84;40.02;18669.78;5052283;28;20288;-60
2022/05/03 10:53:30;;;;;;;8.13;6.80;;;17.70;99.90;;;-141.84;39.93;18700.25;5053134;28;20196;-60